IBE05YT LEMD-LEVX
Flight info
| Callsign | IBE05YT |
|---|---|
| Flight time | 0h 51m |
| Altitude | 29000 |
| Route | ZMR N733 DESAT/N0403F300 DCT BARKO |
| Aircraft | A320/M-SDE3FGHIRWY/LB1 |
Departure
| Time | 2026-05-06 14:37 |
|---|---|
| Airport | Adolfo Suárez Madrid–Barajas Airport (LEMD) |
Arrival
| Time | 2026-05-06 15:28 |
|---|---|
| Airport | Vigo Airport (LEVX) |
| Time | Latitude | Longitude | Altitude | Speed | Heading |
|---|---|---|---|---|---|
| 2026-05-06 14:06 | 40.49230 | -3.58988 | 1980 ft | 0 kts | 270° |
| 2026-05-06 14:30 | 40.49230 | -3.58978 | 1980 ft | 4 kts | 268° |
| 2026-05-06 14:30 | 40.49233 | -3.58944 | 1980 ft | 4 kts | 253° |
| 2026-05-06 14:30 | 40.49244 | -3.58913 | 1983 ft | 4 kts | 219° |
| 2026-05-06 14:30 | 40.49260 | -3.58904 | 1980 ft | 1 kts | 179° |
| 2026-05-06 14:31 | 40.49264 | -3.58904 | 1980 ft | 0 kts | 179° |
| 2026-05-06 14:33 | 40.49263 | -3.58904 | 1980 ft | 1 kts | 179° |
| 2026-05-06 14:33 | 40.49251 | -3.58897 | 1981 ft | 4 kts | 146° |
| 2026-05-06 14:33 | 40.49242 | -3.58845 | 1983 ft | 8 kts | 90° |
| 2026-05-06 14:33 | 40.49241 | -3.58746 | 1983 ft | 13 kts | 90° |
| 2026-05-06 14:34 | 40.49241 | -3.58620 | 1982 ft | 15 kts | 90° |
| 2026-05-06 14:34 | 40.49243 | -3.58479 | 1980 ft | 16 kts | 89° |
| 2026-05-06 14:34 | 40.49243 | -3.58327 | 1980 ft | 17 kts | 90° |
| 2026-05-06 14:34 | 40.49244 | -3.58162 | 1980 ft | 19 kts | 90° |
| 2026-05-06 14:35 | 40.49244 | -3.57985 | 1980 ft | 20 kts | 90° |
| 2026-05-06 14:35 | 40.49245 | -3.57799 | 1980 ft | 21 kts | 89° |
| 2026-05-06 14:35 | 40.49255 | -3.57604 | 1980 ft | 22 kts | 73° |
| 2026-05-06 14:35 | 40.49303 | -3.57469 | 1982 ft | 9 kts | 37° |
| 2026-05-06 14:36 | 40.49366 | -3.57463 | 1982 ft | 9 kts | 1° |
| 2026-05-06 14:36 | 40.49487 | -3.57463 | 1980 ft | 43 kts | 359° |
| 2026-05-06 14:36 | 40.50033 | -3.57465 | 1982 ft | 110 kts | 360° |
| 2026-05-06 14:36 | 40.50982 | -3.57471 | 1983 ft | 160 kts | 0° |
| 2026-05-06 14:37 | 40.52147 | -3.57476 | 2467 ft | 170 kts | 0° |
| 2026-05-06 14:37 | 40.53330 | -3.57491 | 3156 ft | 170 kts | 359° |
| 2026-05-06 14:37 | 40.54518 | -3.57507 | 3831 ft | 174 kts | 359° |
| 2026-05-06 14:37 | 40.55742 | -3.57892 | 4137 ft | 194 kts | 326° |
| 2026-05-06 14:38 | 40.56665 | -3.59288 | 4395 ft | 216 kts | 299° |
| 2026-05-06 14:38 | 40.57547 | -3.60896 | 4962 ft | 227 kts | 312° |
| 2026-05-06 14:38 | 40.58685 | -3.62396 | 5726 ft | 230 kts | 318° |
| 2026-05-06 14:38 | 40.59927 | -3.63745 | 6523 ft | 233 kts | 321° |
| 2026-05-06 14:39 | 40.61214 | -3.65055 | 7292 ft | 235 kts | 322° |
| 2026-05-06 14:39 | 40.62519 | -3.66366 | 8071 ft | 237 kts | 324° |
| 2026-05-06 14:39 | 40.64003 | -3.67323 | 8846 ft | 240 kts | 344° |
| 2026-05-06 14:39 | 40.65675 | -3.67645 | 9344 ft | 258 kts | 2° |
| 2026-05-06 14:40 | 40.67543 | -3.67397 | 9691 ft | 280 kts | 6° |
| 2026-05-06 14:40 | 40.69524 | -3.67097 | 10189 ft | 296 kts | 6° |
| 2026-05-06 14:40 | 40.71652 | -3.66779 | 10459 ft | 319 kts | 6° |
| 2026-05-06 14:40 | 40.73905 | -3.66453 | 11006 ft | 330 kts | 5° |
| 2026-05-06 14:41 | 40.76208 | -3.66651 | 11684 ft | 336 kts | 344° |
| 2026-05-06 14:41 | 40.78321 | -3.67980 | 12375 ft | 341 kts | 322° |
| 2026-05-06 14:41 | 40.79909 | -3.70299 | 13091 ft | 344 kts | 300° |
| 2026-05-06 14:41 | 40.81087 | -3.73065 | 13816 ft | 347 kts | 298° |
| 2026-05-06 14:42 | 40.82255 | -3.75871 | 14477 ft | 350 kts | 298° |
| 2026-05-06 14:42 | 40.83430 | -3.78700 | 15170 ft | 352 kts | 298° |
| 2026-05-06 14:42 | 40.84612 | -3.81544 | 15883 ft | 354 kts | 298° |
| 2026-05-06 14:42 | 40.85799 | -3.84399 | 16580 ft | 356 kts | 298° |
| 2026-05-06 14:43 | 40.86992 | -3.87269 | 17275 ft | 358 kts | 297° |
| 2026-05-06 14:43 | 40.88132 | -3.90012 | 17923 ft | 360 kts | 298° |
| 2026-05-06 14:43 | 40.89345 | -3.92921 | 18544 ft | 362 kts | 298° |
| 2026-05-06 14:43 | 40.90562 | -3.95840 | 19105 ft | 364 kts | 297° |
| 2026-05-06 14:44 | 40.91785 | -3.98774 | 19701 ft | 366 kts | 297° |
| 2026-05-06 14:44 | 40.93014 | -4.01729 | 20281 ft | 367 kts | 297° |
| 2026-05-06 14:44 | 40.94246 | -4.04695 | 20881 ft | 369 kts | 297° |
| 2026-05-06 14:45 | 40.96724 | -4.10685 | 21999 ft | 373 kts | 297° |
| 2026-05-06 14:45 | 40.97968 | -4.13702 | 22550 ft | 375 kts | 297° |
| 2026-05-06 14:45 | 40.99203 | -4.16695 | 23086 ft | 376 kts | 297° |
| 2026-05-06 14:45 | 41.00461 | -4.19747 | 23600 ft | 378 kts | 296° |
| 2026-05-06 14:46 | 41.01723 | -4.22809 | 24038 ft | 380 kts | 296° |
| 2026-05-06 14:46 | 41.02946 | -4.25926 | 24467 ft | 382 kts | 295° |
| 2026-05-06 14:46 | 41.04128 | -4.29086 | 24875 ft | 384 kts | 294° |
| 2026-05-06 14:46 | 41.05291 | -4.32275 | 25305 ft | 385 kts | 294° |
| 2026-05-06 14:47 | 41.06451 | -4.35483 | 25705 ft | 387 kts | 294° |
| 2026-05-06 14:47 | 41.07624 | -4.38715 | 26111 ft | 389 kts | 294° |
| 2026-05-06 14:47 | 41.08809 | -4.41947 | 26504 ft | 392 kts | 294° |
| 2026-05-06 14:47 | 41.10008 | -4.45198 | 26893 ft | 394 kts | 294° |
| 2026-05-06 14:48 | 41.11213 | -4.48466 | 27273 ft | 395 kts | 294° |
| 2026-05-06 14:48 | 41.12427 | -4.51749 | 27663 ft | 398 kts | 294° |
| 2026-05-06 14:48 | 41.13648 | -4.55055 | 28041 ft | 400 kts | 294° |
| 2026-05-06 14:48 | 41.14871 | -4.58374 | 28393 ft | 402 kts | 294° |
| 2026-05-06 14:49 | 41.16104 | -4.61722 | 28736 ft | 404 kts | 294° |
| 2026-05-06 14:49 | 41.17340 | -4.65082 | 28943 ft | 405 kts | 294° |
| 2026-05-06 14:49 | 41.18553 | -4.68377 | 28967 ft | 388 kts | 294° |
| 2026-05-06 14:50 | 41.20849 | -4.74632 | 28968 ft | 375 kts | 294° |
| 2026-05-06 14:50 | 41.23117 | -4.80845 | 28963 ft | 373 kts | 294° |
| 2026-05-06 14:51 | 41.25376 | -4.87058 | 28971 ft | 374 kts | 294° |
| 2026-05-06 14:51 | 41.27650 | -4.93313 | 28965 ft | 374 kts | 294° |
| 2026-05-06 14:52 | 41.29905 | -4.99515 | 28958 ft | 374 kts | 294° |
| 2026-05-06 14:52 | 41.32161 | -5.05733 | 28953 ft | 375 kts | 294° |
| 2026-05-06 14:53 | 41.34422 | -5.11992 | 28955 ft | 375 kts | 294° |
| 2026-05-06 14:53 | 41.36676 | -5.18250 | 28959 ft | 375 kts | 294° |
| 2026-05-06 14:54 | 41.38935 | -5.24516 | 28957 ft | 374 kts | 294° |
| 2026-05-06 14:54 | 41.41170 | -5.30740 | 28957 ft | 374 kts | 294° |
| 2026-05-06 14:55 | 41.43416 | -5.37012 | 28954 ft | 374 kts | 294° |
| 2026-05-06 14:55 | 41.45652 | -5.43269 | 28959 ft | 375 kts | 294° |
| 2026-05-06 14:56 | 41.47895 | -5.49551 | 28960 ft | 375 kts | 294° |
| 2026-05-06 14:56 | 41.50137 | -5.55845 | 28957 ft | 375 kts | 294° |
| 2026-05-06 14:57 | 41.52369 | -5.62122 | 28961 ft | 375 kts | 294° |
| 2026-05-06 14:57 | 41.54985 | -5.68181 | 28960 ft | 377 kts | 302° |
| 2026-05-06 14:58 | 41.58024 | -5.73840 | 28950 ft | 377 kts | 304° |
| 2026-05-06 14:58 | 41.61134 | -5.79499 | 28944 ft | 377 kts | 304° |
| 2026-05-06 14:59 | 41.64186 | -5.85250 | 28955 ft | 377 kts | 303° |
| 2026-05-06 14:59 | 41.67176 | -5.91008 | 28946 ft | 377 kts | 303° |
| 2026-05-06 15:00 | 41.70145 | -5.96756 | 28937 ft | 377 kts | 303° |
| 2026-05-06 15:00 | 41.73133 | -6.02536 | 28935 ft | 377 kts | 303° |
| 2026-05-06 15:01 | 41.76115 | -6.08285 | 28937 ft | 377 kts | 303° |
| 2026-05-06 15:01 | 41.79113 | -6.14066 | 28936 ft | 378 kts | 303° |
| 2026-05-06 15:02 | 41.82109 | -6.19873 | 28949 ft | 379 kts | 303° |
| 2026-05-06 15:02 | 41.85101 | -6.25690 | 28943 ft | 379 kts | 303° |
| 2026-05-06 15:03 | 41.88092 | -6.31517 | 28944 ft | 379 kts | 303° |
| 2026-05-06 15:03 | 41.91085 | -6.37344 | 28942 ft | 379 kts | 303° |
| 2026-05-06 15:04 | 41.94071 | -6.43172 | 28937 ft | 379 kts | 302° |
| 2026-05-06 15:04 | 41.97044 | -6.49007 | 28928 ft | 379 kts | 302° |
| 2026-05-06 15:05 | 42.00025 | -6.54860 | 28932 ft | 380 kts | 302° |
| 2026-05-06 15:05 | 42.02998 | -6.60687 | 28944 ft | 380 kts | 302° |
| 2026-05-06 15:06 | 42.05990 | -6.66578 | 28940 ft | 381 kts | 302° |
| 2026-05-06 15:06 | 42.08972 | -6.72472 | 28943 ft | 381 kts | 302° |
| 2026-05-06 15:07 | 42.11939 | -6.78345 | 28659 ft | 374 kts | 302° |
| 2026-05-06 15:07 | 42.13393 | -6.81216 | 28384 ft | 370 kts | 302° |
| 2026-05-06 15:07 | 42.14838 | -6.84072 | 28108 ft | 367 kts | 302° |
| 2026-05-06 15:07 | 42.16273 | -6.86919 | 27834 ft | 367 kts | 302° |
| 2026-05-06 15:08 | 42.17702 | -6.89755 | 27582 ft | 364 kts | 302° |
| 2026-05-06 15:08 | 42.19098 | -6.92561 | 27239 ft | 357 kts | 299° |
| 2026-05-06 15:08 | 42.20193 | -6.95534 | 26822 ft | 351 kts | 289° |
| 2026-05-06 15:08 | 42.20884 | -6.98668 | 26404 ft | 347 kts | 283° |
| 2026-05-06 15:09 | 42.21482 | -7.01760 | 25995 ft | 344 kts | 283° |
| 2026-05-06 15:09 | 42.22091 | -7.04873 | 25572 ft | 342 kts | 283° |
| 2026-05-06 15:09 | 42.22697 | -7.07964 | 25153 ft | 339 kts | 283° |
| 2026-05-06 15:09 | 42.23297 | -7.11034 | 24718 ft | 338 kts | 283° |
| 2026-05-06 15:10 | 42.23895 | -7.14105 | 24281 ft | 337 kts | 283° |
| 2026-05-06 15:10 | 42.24490 | -7.17165 | 23842 ft | 337 kts | 284° |
| 2026-05-06 15:10 | 42.25084 | -7.20215 | 23381 ft | 336 kts | 283° |
| 2026-05-06 15:10 | 42.25676 | -7.23260 | 22918 ft | 334 kts | 283° |
| 2026-05-06 15:11 | 42.26262 | -7.26282 | 22492 ft | 331 kts | 283° |
| 2026-05-06 15:11 | 42.26648 | -7.28271 | 22210 ft | 330 kts | 283° |
| 2026-05-06 15:11 | 42.27225 | -7.31253 | 21799 ft | 327 kts | 283° |
| 2026-05-06 15:11 | 42.27801 | -7.34238 | 21383 ft | 326 kts | 283° |
| 2026-05-06 15:12 | 42.28367 | -7.37186 | 20979 ft | 324 kts | 283° |
| 2026-05-06 15:12 | 42.28926 | -7.40102 | 20580 ft | 323 kts | 283° |
| 2026-05-06 15:12 | 42.29491 | -7.43042 | 20181 ft | 321 kts | 284° |
| 2026-05-06 15:12 | 42.30050 | -7.45949 | 19785 ft | 321 kts | 284° |
| 2026-05-06 15:13 | 42.30609 | -7.48858 | 19391 ft | 320 kts | 284° |
| 2026-05-06 15:13 | 42.31170 | -7.51788 | 18991 ft | 320 kts | 283° |
| 2026-05-06 15:13 | 42.31725 | -7.54684 | 18598 ft | 319 kts | 284° |
| 2026-05-06 15:13 | 42.32281 | -7.57598 | 18196 ft | 319 kts | 283° |
| 2026-05-06 15:14 | 42.32827 | -7.60468 | 17777 ft | 319 kts | 283° |
| 2026-05-06 15:14 | 42.33373 | -7.63342 | 17401 ft | 318 kts | 283° |
| 2026-05-06 15:14 | 42.33917 | -7.66228 | 17014 ft | 316 kts | 283° |
| 2026-05-06 15:14 | 42.34459 | -7.69105 | 16638 ft | 315 kts | 284° |
| 2026-05-06 15:15 | 42.34999 | -7.71962 | 16262 ft | 314 kts | 284° |
| 2026-05-06 15:15 | 42.35536 | -7.74808 | 15903 ft | 314 kts | 284° |
| 2026-05-06 15:15 | 42.36074 | -7.77655 | 15535 ft | 313 kts | 284° |
| 2026-05-06 15:15 | 42.36613 | -7.80513 | 15168 ft | 313 kts | 283° |
| 2026-05-06 15:16 | 42.37148 | -7.83366 | 14796 ft | 313 kts | 283° |
| 2026-05-06 15:16 | 42.37682 | -7.86216 | 14423 ft | 313 kts | 283° |
| 2026-05-06 15:16 | 42.38215 | -7.89068 | 14045 ft | 313 kts | 284° |
| 2026-05-06 15:16 | 42.38747 | -7.91922 | 13666 ft | 313 kts | 283° |
| 2026-05-06 15:17 | 42.39279 | -7.94776 | 13271 ft | 313 kts | 283° |
| 2026-05-06 15:17 | 42.39812 | -7.97624 | 12887 ft | 311 kts | 283° |
| 2026-05-06 15:17 | 42.40343 | -8.00461 | 12508 ft | 310 kts | 283° |
| 2026-05-06 15:17 | 42.40871 | -8.03287 | 12123 ft | 309 kts | 284° |
| 2026-05-06 15:18 | 42.41387 | -8.06061 | 11760 ft | 308 kts | 284° |
| 2026-05-06 15:18 | 42.41906 | -8.08865 | 11378 ft | 306 kts | 283° |
| 2026-05-06 15:18 | 42.42424 | -8.11667 | 10983 ft | 306 kts | 284° |
| 2026-05-06 15:18 | 42.42939 | -8.14453 | 10596 ft | 305 kts | 284° |
| 2026-05-06 15:19 | 42.43451 | -8.17237 | 10205 ft | 304 kts | 284° |
| 2026-05-06 15:19 | 42.43963 | -8.20014 | 9863 ft | 302 kts | 284° |
| 2026-05-06 15:19 | 42.44459 | -8.22714 | 9677 ft | 293 kts | 284° |
| 2026-05-06 15:19 | 42.44949 | -8.25390 | 9277 ft | 292 kts | 284° |
| 2026-05-06 15:20 | 42.45435 | -8.28039 | 8681 ft | 288 kts | 284° |
| 2026-05-06 15:20 | 42.45914 | -8.30632 | 8206 ft | 279 kts | 284° |
| 2026-05-06 15:20 | 42.46371 | -8.33113 | 7814 ft | 268 kts | 284° |
| 2026-05-06 15:20 | 42.46811 | -8.35515 | 7450 ft | 267 kts | 283° |
| 2026-05-06 15:21 | 42.47257 | -8.37954 | 7062 ft | 268 kts | 283° |
| 2026-05-06 15:21 | 42.47702 | -8.40409 | 6668 ft | 268 kts | 283° |
| 2026-05-06 15:21 | 42.48147 | -8.42867 | 6264 ft | 269 kts | 283° |
| 2026-05-06 15:21 | 42.48593 | -8.45332 | 5837 ft | 270 kts | 284° |
| 2026-05-06 15:22 | 42.48985 | -8.47822 | 5414 ft | 271 kts | 275° |
| 2026-05-06 15:22 | 42.48895 | -8.50353 | 5107 ft | 266 kts | 258° |
| 2026-05-06 15:22 | 42.48278 | -8.52641 | 4990 ft | 253 kts | 241° |
| 2026-05-06 15:22 | 42.47280 | -8.54493 | 5000 ft | 236 kts | 225° |
| 2026-05-06 15:23 | 42.46049 | -8.55854 | 4996 ft | 222 kts | 211° |
| 2026-05-06 15:23 | 42.44715 | -8.56724 | 4929 ft | 213 kts | 198° |
| 2026-05-06 15:23 | 42.43288 | -8.57185 | 4713 ft | 209 kts | 191° |
| 2026-05-06 15:23 | 42.41900 | -8.57567 | 4425 ft | 205 kts | 195° |
| 2026-05-06 15:24 | 42.40547 | -8.57940 | 4163 ft | 191 kts | 192° |
| 2026-05-06 15:24 | 42.39288 | -8.58284 | 3901 ft | 180 kts | 193° |
| 2026-05-06 15:24 | 42.38096 | -8.58610 | 3654 ft | 170 kts | 192° |
| 2026-05-06 15:24 | 42.36982 | -8.58914 | 3451 ft | 161 kts | 193° |
| 2026-05-06 15:25 | 42.35892 | -8.59213 | 3237 ft | 158 kts | 193° |
| 2026-05-06 15:25 | 42.34822 | -8.59505 | 3020 ft | 157 kts | 193° |
| 2026-05-06 15:25 | 42.33759 | -8.59795 | 2820 ft | 158 kts | 194° |
| 2026-05-06 15:25 | 42.32693 | -8.60087 | 2585 ft | 157 kts | 194° |
| 2026-05-06 15:26 | 42.31612 | -8.60381 | 2370 ft | 158 kts | 193° |
| 2026-05-06 15:26 | 42.30573 | -8.60665 | 2163 ft | 154 kts | 192° |
| 2026-05-06 15:26 | 42.29532 | -8.60948 | 1947 ft | 151 kts | 192° |
| 2026-05-06 15:26 | 42.28505 | -8.61229 | 1745 ft | 150 kts | 193° |
| 2026-05-06 15:27 | 42.27485 | -8.61512 | 1536 ft | 150 kts | 193° |
| 2026-05-06 15:27 | 42.26459 | -8.61788 | 1335 ft | 150 kts | 192° |
| 2026-05-06 15:27 | 42.25432 | -8.62075 | 1120 ft | 151 kts | 194° |
| 2026-05-06 15:27 | 42.24377 | -8.62358 | 931 ft | 156 kts | 193° |
| 2026-05-06 15:28 | 42.23386 | -8.62629 | 847 ft | 129 kts | 192° |
| 2026-05-06 15:28 | 42.22674 | -8.62818 | 842 ft | 80 kts | 191° |
| 2026-05-06 15:28 | 42.22259 | -8.62933 | 852 ft | 33 kts | 191° |
| 2026-05-06 15:28 | 42.22152 | -8.62984 | 853 ft | 9 kts | 220° |
| 2026-05-06 15:29 | 42.22122 | -8.63038 | 857 ft | 6 kts | 242° |
| 2026-05-06 15:29 | 42.22111 | -8.63076 | 852 ft | 3 kts | 250° |
| 2026-05-06 15:29 | 42.22112 | -8.63130 | 860 ft | 8 kts | 283° |
| 2026-05-06 15:29 | 42.22158 | -8.63174 | 859 ft | 10 kts | 0° |
| 2026-05-06 15:30 | 42.22254 | -8.63147 | 842 ft | 17 kts | 12° |
| 2026-05-06 15:30 | 42.22387 | -8.63112 | 846 ft | 21 kts | 10° |
| 2026-05-06 15:30 | 42.22490 | -8.63094 | 845 ft | 9 kts | 335° |
| 2026-05-06 15:30 | 42.22506 | -8.63147 | 844 ft | 2 kts | 281° |
| 2026-05-06 15:31 | 42.22510 | -8.63174 | 851 ft | 4 kts | 281° |
| 2026-05-06 15:31 | 42.22511 | -8.63184 | 847 ft | 0 kts | 281° |